createdAt,value
2023-05-03T00:01:41.238Z,10.68
2023-05-03T00:04:08.473Z,10.58
2023-05-03T00:06:35.028Z,10.54
2023-05-03T00:09:03.315Z,10.49
2023-05-03T00:11:29.819Z,10.51
2023-05-03T00:13:56.354Z,10.44
2023-05-03T00:16:22.933Z,10.41
2023-05-03T00:18:49.566Z,10.39
2023-05-03T00:21:16.364Z,10.32
2023-05-03T00:23:42.849Z,10.24
2023-05-03T00:26:09.330Z,10.15
2023-05-03T00:28:35.813Z,10.08
2023-05-03T00:31:09.801Z,10.15
2023-05-03T00:33:37.159Z,10.11
2023-05-03T00:36:13.904Z,10.18
2023-05-03T00:38:42.172Z,10.15
2023-05-03T00:41:12.995Z,10.15
2023-05-03T00:43:39.506Z,10.17
2023-05-03T00:46:15.969Z,10.11
2023-05-03T00:48:46.454Z,10.01
2023-05-03T00:51:14.989Z,9.80
2023-05-03T00:53:44.889Z,9.82
2023-05-03T00:56:11.971Z,9.66
2023-05-03T00:58:40.505Z,9.70
2023-05-03T01:01:08.049Z,9.71
2023-05-03T01:03:37.649Z,9.83
2023-05-03T01:06:18.133Z,9.73
2023-05-03T01:08:50.810Z,9.80
2023-05-03T01:11:33.999Z,9.76
2023-05-03T01:14:20.639Z,9.72
2023-05-03T01:16:53.986Z,9.73
2023-05-03T01:19:37.673Z,9.67
2023-05-03T01:22:39.714Z,9.63
2023-05-03T01:25:10.698Z,9.65
2023-05-03T01:27:41.656Z,9.72
2023-05-03T01:30:10.470Z,9.73
2023-05-03T01:32:46.677Z,9.66
2023-05-03T01:35:25.830Z,9.60
2023-05-03T01:37:52.339Z,9.53
2023-05-03T01:40:21.100Z,9.48
2023-05-03T01:42:48.374Z,9.52
2023-05-03T01:45:15.761Z,9.46
2023-05-03T01:47:42.305Z,9.42
2023-05-03T01:50:11.540Z,9.41
2023-05-03T01:52:41.177Z,9.40
2023-05-03T01:55:10.462Z,9.41
2023-05-03T01:57:39.307Z,9.34
2023-05-03T02:00:07.492Z,9.32
2023-05-03T02:02:34.606Z,9.35
2023-05-03T02:05:01.114Z,9.41
2023-05-03T02:07:27.562Z,9.44
2023-05-03T02:09:54.082Z,9.42
2023-05-03T02:12:20.725Z,9.39
2023-05-03T02:14:47.260Z,9.39
2023-05-03T02:17:14.416Z,9.38
2023-05-03T02:19:40.927Z,9.35
2023-05-03T02:22:07.519Z,9.34
2023-05-03T02:24:36.148Z,9.38
2023-05-03T02:27:06.671Z,9.36
2023-05-03T02:29:33.237Z,9.38
2023-05-03T02:31:59.715Z,9.38
2023-05-03T02:34:27.400Z,9.36
2023-05-03T02:36:53.922Z,9.41
2023-05-03T02:39:20.532Z,9.48
2023-05-03T02:41:47.156Z,9.44
2023-05-03T02:44:13.693Z,9.43
2023-05-03T02:46:42.889Z,9.48
2023-05-03T02:49:11.544Z,9.42
2023-05-03T02:51:38.008Z,9.55
2023-05-03T02:54:04.545Z,9.62
2023-05-03T02:56:31.048Z,9.65
2023-05-03T02:58:57.448Z,9.69
2023-05-03T03:01:23.970Z,9.63
2023-05-03T03:03:50.685Z,9.36
2023-05-03T03:06:17.459Z,9.17
2023-05-03T03:08:43.963Z,9.01
2023-05-03T03:11:13.164Z,8.91
2023-05-03T03:13:43.570Z,8.87
2023-05-03T03:16:13.189Z,8.91
2023-05-03T03:18:39.671Z,8.96
2023-05-03T03:21:06.150Z,8.80
2023-05-03T03:23:32.575Z,8.71
2023-05-03T03:25:59.056Z,8.58
2023-05-03T03:28:25.534Z,8.44
2023-05-03T03:30:52.048Z,8.34
2023-05-03T03:33:18.705Z,8.12
2023-05-03T03:35:45.491Z,8.13
2023-05-03T03:38:12.298Z,8.10
2023-05-03T03:40:39.522Z,7.98
2023-05-03T03:43:05.992Z,8.02
2023-05-03T03:45:32.412Z,7.87
2023-05-03T03:47:58.999Z,7.85
2023-05-03T03:50:26.183Z,7.88
2023-05-03T03:52:52.713Z,7.87
2023-05-03T03:55:19.294Z,7.74
2023-05-03T03:57:48.591Z,7.61
2023-05-03T04:00:18.319Z,7.68
2023-05-03T04:02:47.913Z,7.75
2023-05-03T04:05:16.675Z,7.79
2023-05-03T04:07:43.164Z,7.81
2023-05-03T04:10:10.378Z,7.80
2023-05-03T04:12:38.009Z,7.74
2023-05-03T04:15:05.293Z,7.73
2023-05-03T04:17:33.251Z,7.74
2023-05-03T04:19:59.744Z,7.86
2023-05-03T04:22:26.375Z,7.89
2023-05-03T04:24:54.735Z,7.90
2023-05-03T04:27:21.161Z,7.85
2023-05-03T04:29:50.770Z,7.75
2023-05-03T04:32:23.359Z,7.66
2023-05-03T04:34:53.877Z,7.71
2023-05-03T04:37:22.124Z,7.84
2023-05-03T04:39:48.718Z,7.82
2023-05-03T04:42:15.366Z,7.87
2023-05-03T04:44:42.641Z,7.96
2023-05-03T04:47:09.105Z,7.82
2023-05-03T04:49:39.840Z,7.93
2023-05-03T04:52:06.805Z,7.90
2023-05-03T04:54:33.327Z,7.95
2023-05-03T04:56:59.796Z,7.86
2023-05-03T04:59:26.312Z,7.90
2023-05-03T05:01:52.844Z,8.00
2023-05-03T05:04:22.748Z,8.07
2023-05-03T05:06:54.719Z,8.21
2023-05-03T05:09:28.413Z,8.30
2023-05-03T05:11:57.034Z,8.32
2023-05-03T05:14:24.002Z,8.31
2023-05-03T05:16:53.171Z,8.36
2023-05-03T05:19:22.513Z,8.42
2023-05-03T05:21:52.321Z,8.41
2023-05-03T05:24:21.964Z,8.43
2023-05-03T05:26:51.579Z,8.42
2023-05-03T05:29:21.866Z,8.40
2023-05-03T05:31:49.839Z,8.68
2023-05-03T05:34:16.404Z,8.74
2023-05-03T05:36:42.890Z,8.93
2023-05-03T05:39:10.150Z,8.92
2023-05-03T05:41:36.624Z,9.15
2023-05-03T05:44:03.150Z,9.17
2023-05-03T05:46:29.678Z,9.20
2023-05-03T05:48:56.215Z,9.39
2023-05-03T05:51:22.709Z,9.50
2023-05-03T05:53:52.402Z,9.59
2023-05-03T05:56:22.153Z,9.67
2023-05-03T05:58:51.944Z,9.70
2023-05-03T06:01:21.614Z,9.80
2023-05-03T06:03:50.536Z,9.80
2023-05-03T06:06:19.364Z,9.93
2023-05-03T06:08:49.739Z,9.96
2023-05-03T06:11:19.482Z,9.98
2023-05-03T06:13:45.928Z,9.98
2023-05-03T06:16:12.453Z,10.01
2023-05-03T06:18:39.209Z,10.09
2023-05-03T06:21:05.782Z,10.25
2023-05-03T06:23:33.381Z,10.52
2023-05-03T06:25:59.854Z,10.69
2023-05-03T06:28:26.349Z,10.69
2023-05-03T06:30:52.948Z,10.82
2023-05-03T06:33:20.446Z,11.03
2023-05-03T06:35:52.605Z,11.21
2023-05-03T06:38:22.756Z,11.43
2023-05-03T06:40:52.028Z,11.66
2023-05-03T06:43:20.994Z,11.76
2023-05-03T06:45:51.671Z,11.91
2023-05-03T06:48:21.753Z,12.11
2023-05-03T06:50:52.010Z,12.35
2023-05-03T06:53:21.613Z,12.55
2023-05-03T06:56:02.576Z,12.71
2023-05-03T06:58:29.145Z,12.72
2023-05-03T07:00:55.876Z,13.24
2023-05-03T07:03:23.751Z,13.38
2023-05-03T07:05:50.394Z,13.65
2023-05-03T07:08:21.247Z,13.80
2023-05-03T07:10:53.300Z,13.95
2023-05-03T07:13:20.085Z,14.23
2023-05-03T07:15:48.894Z,14.42
2023-05-03T07:18:15.434Z,14.59
2023-05-03T07:20:41.967Z,14.81
2023-05-03T07:23:08.698Z,14.94
2023-05-03T07:25:35.388Z,14.98
2023-05-03T07:28:01.932Z,15.14
2023-05-03T07:30:29.455Z,15.35
2023-05-03T07:32:56.166Z,15.51
2023-05-03T07:35:23.265Z,15.76
2023-05-03T07:37:49.756Z,16.01
2023-05-03T07:40:19.016Z,16.27
2023-05-03T07:42:46.155Z,16.35
2023-05-03T07:45:12.637Z,16.35
2023-05-03T07:47:40.087Z,16.42
2023-05-03T07:50:07.457Z,16.58
2023-05-03T07:52:37.739Z,16.56
2023-05-03T07:55:04.966Z,16.31
2023-05-03T07:57:32.376Z,16.42
2023-05-03T07:59:58.957Z,16.64
2023-05-03T08:02:26.128Z,16.97
2023-05-03T08:04:52.929Z,17.08
2023-05-03T08:07:20.078Z,17.32
2023-05-03T08:09:49.216Z,17.43
2023-05-03T08:12:15.905Z,17.48
2023-05-03T08:14:42.352Z,17.59
2023-05-03T08:17:09.616Z,17.80
2023-05-03T08:19:36.126Z,17.88
2023-05-03T08:22:03.540Z,18.08
2023-05-03T08:24:30.309Z,18.39
2023-05-03T08:26:56.745Z,18.47
2023-05-03T08:29:23.770Z,18.52
2023-05-03T08:31:50.993Z,18.79
2023-05-03T08:34:20.510Z,19.03
2023-05-03T08:36:49.321Z,19.22
2023-05-03T08:39:15.818Z,19.39
2023-05-03T08:41:42.508Z,19.52
2023-05-03T08:44:12.098Z,19.64
2023-05-03T08:46:38.971Z,19.89
2023-05-03T08:49:09.085Z,20.06
2023-05-03T08:51:41.020Z,20.32
2023-05-03T08:54:08.126Z,20.63
2023-05-03T08:56:41.567Z,20.97
2023-05-03T08:59:09.168Z,21.16
2023-05-03T09:01:37.169Z,21.21
2023-05-03T09:04:04.339Z,21.60
2023-05-03T09:06:33.102Z,21.94
2023-05-03T09:09:00.936Z,22.29
2023-05-03T09:11:32.553Z,22.57
2023-05-03T09:14:12.509Z,23.07
2023-05-03T09:16:40.990Z,23.34
2023-05-03T09:19:11.896Z,23.60
2023-05-03T09:21:43.128Z,23.77
2023-05-03T09:24:18.854Z,23.86
2023-05-03T09:26:47.339Z,24.22
2023-05-03T09:29:31.845Z,24.47
2023-05-03T09:32:00.778Z,24.80
2023-05-03T09:34:27.465Z,25.02
2023-05-03T09:36:55.079Z,25.53
2023-05-03T09:39:21.585Z,25.90
2023-05-03T09:41:51.658Z,26.33
2023-05-03T09:44:40.806Z,26.89
2023-05-03T09:47:07.873Z,27.41
2023-05-03T09:49:35.174Z,27.69
2023-05-03T09:52:02.867Z,27.08
2023-05-03T09:54:33.486Z,26.61
2023-05-03T09:57:02.431Z,26.56
2023-05-03T09:59:29.218Z,26.77
2023-05-03T10:01:58.768Z,27.08
2023-05-03T10:04:28.192Z,26.72
2023-05-03T10:07:00.452Z,26.84
2023-05-03T10:09:35.614Z,27.06
2023-05-03T10:12:07.091Z,27.29
2023-05-03T10:14:34.024Z,27.67
2023-05-03T10:17:06.355Z,28.04
2023-05-03T10:19:40.822Z,28.39
2023-05-03T10:22:09.838Z,28.49
2023-05-03T10:24:38.419Z,28.40
2023-05-03T10:27:11.401Z,28.14
2023-05-03T10:29:45.973Z,28.07
2023-05-03T10:32:33.197Z,28.34
2023-05-03T10:35:12.709Z,28.22
2023-05-03T10:37:42.386Z,27.18
2023-05-03T10:40:11.634Z,26.98
2023-05-03T10:42:38.776Z,26.99
2023-05-03T10:45:08.892Z,27.41
2023-05-03T10:47:36.061Z,28.15
2023-05-03T10:50:11.685Z,28.70
2023-05-03T10:52:38.448Z,28.57
2023-05-03T10:55:24.884Z,28.85
2023-05-03T10:57:57.657Z,29.17
2023-05-03T11:00:33.324Z,29.10
2023-05-03T11:03:31.669Z,29.14
2023-05-03T11:05:58.260Z,28.54
2023-05-03T11:08:30.630Z,28.77
2023-05-03T11:10:59.799Z,29.08
2023-05-03T11:13:27.343Z,29.12
2023-05-03T11:15:55.335Z,29.80
2023-05-03T11:18:26.119Z,30.23
2023-05-03T11:20:56.291Z,29.64
2023-05-03T11:23:29.746Z,29.41
2023-05-03T11:25:58.222Z,29.64
2023-05-03T11:28:26.133Z,29.81
2023-05-03T11:30:55.408Z,30.11
2023-05-03T11:33:29.470Z,30.56
2023-05-03T11:35:58.502Z,30.47
2023-05-03T11:38:25.151Z,30.44
2023-05-03T11:40:53.790Z,30.65
2023-05-03T11:43:20.451Z,30.91
2023-05-03T11:45:50.775Z,31.07
2023-05-03T11:48:17.456Z,30.89
2023-05-03T11:50:55.470Z,30.83
2023-05-03T11:53:25.912Z,31.02
2023-05-03T11:55:57.098Z,31.36
2023-05-03T11:58:28.220Z,31.68
2023-05-03T12:00:57.197Z,31.12
2023-05-03T12:03:30.705Z,31.06
2023-05-03T12:05:59.736Z,30.68
2023-05-03T12:08:36.243Z,30.41
2023-05-03T12:11:06.145Z,30.42
2023-05-03T12:13:38.364Z,30.32
2023-05-03T12:16:12.539Z,30.49
2023-05-03T12:18:48.219Z,30.49
2023-05-03T12:23:46.121Z,31.19
2023-05-03T12:26:14.506Z,31.01
2023-05-03T12:28:41.467Z,31.04
2023-05-03T12:31:08.232Z,31.11
2023-05-03T12:33:38.173Z,30.73
2023-05-03T12:36:09.213Z,30.65
2023-05-03T12:38:37.804Z,30.44
2023-05-03T12:41:08.581Z,29.79
2023-05-03T12:43:36.355Z,29.97
2023-05-03T12:46:20.064Z,30.03
2023-05-03T12:48:53.556Z,30.65
2023-05-03T12:51:25.598Z,30.81
2023-05-03T12:53:55.201Z,30.86
2023-05-03T12:56:24.886Z,30.87
2023-05-03T12:59:17.864Z,30.85
2023-05-03T13:04:40.703Z,30.31
2023-05-03T13:06:59.880Z,29.94
2023-05-03T13:10:12.553Z,30.10
2023-05-03T13:12:20.368Z,30.21
2023-05-03T13:14:51.218Z,30.43
2023-05-03T13:17:20.427Z,30.61
2023-05-03T13:19:50.905Z,30.70
2023-05-03T13:22:17.688Z,30.49
2023-05-03T13:24:45.843Z,30.81
2023-05-03T13:27:12.523Z,30.90
2023-05-03T13:29:39.720Z,30.85
2023-05-03T13:32:08.082Z,30.26
2023-05-03T13:34:34.979Z,30.31
2023-05-03T13:37:02.544Z,31.05
2023-05-03T13:39:30.499Z,31.56
2023-05-03T13:41:57.057Z,32.05
2023-05-03T13:44:26.426Z,31.53
2023-05-03T13:46:53.870Z,31.48
2023-05-03T13:49:21.099Z,31.53
2023-05-03T13:51:48.317Z,31.50
2023-05-03T13:54:14.953Z,31.66
2023-05-03T13:56:42.923Z,31.41
2023-05-03T13:59:16.261Z,31.34
2023-05-03T14:01:43.421Z,31.48
2023-05-03T14:04:10.644Z,31.53
2023-05-03T14:06:40.412Z,31.64
2023-05-03T14:09:07.692Z,31.88
2023-05-03T14:11:34.292Z,31.62
2023-05-03T14:14:01.015Z,31.44
2023-05-03T14:19:03.700Z,31.19
2023-05-03T14:21:33.002Z,31.07
2023-05-03T14:24:02.298Z,31.29
2023-05-03T14:26:30.556Z,31.25
2023-05-03T14:29:00.493Z,31.03
2023-05-03T14:31:27.037Z,30.87
2023-05-03T14:33:53.703Z,30.56
2023-05-03T14:36:20.162Z,30.31
2023-05-03T14:38:46.952Z,30.29
2023-05-03T14:41:14.118Z,30.53
2023-05-03T14:43:40.734Z,30.38
2023-05-03T14:46:08.543Z,29.90
2023-05-03T14:48:35.444Z,30.03
2023-05-03T14:51:02.097Z,30.35
2023-05-03T14:53:31.442Z,30.51
2023-05-03T14:56:00.060Z,29.98
2023-05-03T14:58:26.760Z,30.23
2023-05-03T15:00:53.511Z,30.11
2023-05-03T15:03:20.131Z,30.03
2023-05-03T15:05:48.296Z,30.12
2023-05-03T15:08:16.753Z,30.17
2023-05-03T15:10:44.745Z,29.96
2023-05-03T15:13:12.620Z,29.86
2023-05-03T15:15:40.535Z,29.64
2023-05-03T15:18:08.633Z,29.64
2023-05-03T15:20:35.714Z,29.88
2023-05-03T15:23:03.595Z,30.00
2023-05-03T15:25:33.130Z,30.16
2023-05-03T15:28:04.526Z,30.39
2023-05-03T15:30:34.569Z,30.08
2023-05-03T15:33:02.320Z,29.53
2023-05-03T15:35:28.887Z,29.49
2023-05-03T15:37:55.430Z,29.40
2023-05-03T15:40:24.346Z,29.45
2023-05-03T15:42:52.692Z,29.39
2023-05-03T15:45:19.337Z,29.21
2023-05-03T15:47:46.204Z,28.93
2023-05-03T15:50:12.890Z,28.81
2023-05-03T15:52:39.437Z,28.88
2023-05-03T15:55:06.767Z,28.57
2023-05-03T15:57:33.288Z,28.37
2023-05-03T16:00:02.398Z,28.39
2023-05-03T16:02:29.184Z,28.41
2023-05-03T16:04:55.719Z,28.09
2023-05-03T16:07:22.277Z,27.85
2023-05-03T16:09:48.717Z,27.55
2023-05-03T16:12:15.488Z,27.47
2023-05-03T16:14:42.083Z,27.57
2023-05-03T16:17:09.696Z,27.63
2023-05-03T16:19:37.585Z,27.54
2023-05-03T16:22:05.117Z,27.14
2023-05-03T16:24:35.021Z,27.05
2023-05-03T16:27:04.722Z,26.86
2023-05-03T16:29:34.880Z,26.63
2023-05-03T16:32:06.384Z,26.52
2023-05-03T16:34:32.916Z,26.31
2023-05-03T16:36:59.407Z,25.75
2023-05-03T16:39:25.942Z,25.56
2023-05-03T16:41:52.416Z,25.46
2023-05-03T16:44:19.268Z,25.39
2023-05-03T16:46:46.616Z,25.13
2023-05-03T16:49:13.311Z,25.08
2023-05-03T16:51:41.024Z,24.73
2023-05-03T16:54:07.499Z,24.45
2023-05-03T16:56:33.995Z,24.45
2023-05-03T16:59:00.539Z,24.35
2023-05-03T17:01:27.086Z,24.44
2023-05-03T17:03:53.780Z,24.45
2023-05-03T17:06:20.428Z,24.32
2023-05-03T17:08:46.925Z,24.27
2023-05-03T17:11:14.335Z,24.38
2023-05-03T17:13:40.974Z,24.29
2023-05-03T17:16:12.758Z,24.16
2023-05-03T17:18:40.457Z,23.68
2023-05-03T17:21:08.714Z,23.56
2023-05-03T17:23:39.432Z,23.39
2023-05-03T17:26:10.208Z,23.29
2023-05-03T17:28:37.355Z,23.08
2023-05-03T17:31:07.549Z,23.05
2023-05-03T17:33:37.569Z,23.00
2023-05-03T17:36:07.257Z,22.76
2023-05-03T17:38:36.254Z,22.75
2023-05-03T17:41:11.488Z,22.80
2023-05-03T17:43:38.668Z,22.62
2023-05-03T17:46:11.018Z,22.44
2023-05-03T17:48:39.977Z,22.37
2023-05-03T17:51:12.522Z,22.15
2023-05-03T17:53:40.023Z,22.05
2023-05-03T17:56:17.599Z,21.79
2023-05-03T17:58:44.919Z,21.82
2023-05-03T18:01:13.205Z,21.61
2023-05-03T18:03:41.659Z,21.53
2023-05-03T18:06:10.646Z,21.55
2023-05-03T18:08:37.343Z,21.36
2023-05-03T18:11:07.443Z,21.24
2023-05-03T18:13:36.266Z,21.02
2023-05-03T18:16:09.575Z,21.15
2023-05-03T18:18:37.345Z,20.88
2023-05-03T18:21:08.123Z,20.90
2023-05-03T18:23:35.759Z,20.79
2023-05-03T18:26:02.345Z,20.72
2023-05-03T18:28:29.858Z,20.62
2023-05-03T18:30:56.409Z,20.58
2023-05-03T18:33:23.114Z,20.65
2023-05-03T18:35:55.592Z,20.31
2023-05-03T18:38:22.218Z,20.36
2023-05-03T18:40:49.925Z,20.24
2023-05-03T18:43:16.634Z,20.05
2023-05-03T18:45:43.334Z,20.21
2023-05-03T18:48:09.941Z,19.98
2023-05-03T18:50:42.704Z,20.07
2023-05-03T18:53:10.563Z,19.90
2023-05-03T18:55:37.370Z,19.83
2023-05-03T18:58:05.494Z,19.61
2023-05-03T19:00:32.049Z,19.65
2023-05-03T19:02:58.585Z,19.42
2023-05-03T19:05:25.278Z,19.59
2023-05-03T19:07:51.770Z,19.39
2023-05-03T19:10:19.899Z,19.29
2023-05-03T19:12:46.583Z,19.16
2023-05-03T19:15:13.558Z,19.19
2023-05-03T19:17:41.992Z,19.05
2023-05-03T19:20:10.123Z,19.04
2023-05-03T19:23:03.345Z,18.93
2023-05-03T19:25:42.939Z,18.96
2023-05-03T19:28:10.620Z,18.88
2023-05-03T19:30:37.217Z,18.95
2023-05-03T19:33:07.438Z,18.83
2023-05-03T19:35:38.956Z,18.79
2023-05-03T19:38:07.241Z,18.92
2023-05-03T19:40:36.173Z,18.88
2023-05-03T19:43:02.962Z,18.81
2023-05-03T19:45:29.589Z,18.77
2023-05-03T19:47:59.159Z,18.69
2023-05-03T19:50:25.975Z,18.47
2023-05-03T19:52:53.110Z,18.67
2023-05-03T19:55:20.509Z,18.57
2023-05-03T19:57:47.365Z,18.37
2023-05-03T20:00:15.695Z,18.31
2023-05-03T20:02:42.238Z,18.39
2023-05-03T20:05:09.079Z,18.25
2023-05-03T20:07:38.731Z,18.41
2023-05-03T20:10:08.957Z,18.34
2023-05-03T20:12:38.992Z,18.23
2023-05-03T20:15:08.796Z,18.14
2023-05-03T20:17:38.728Z,18.06
2023-05-03T20:20:12.435Z,17.91
2023-05-03T20:22:38.931Z,17.89
2023-05-03T20:25:07.184Z,17.76
2023-05-03T20:27:36.043Z,17.65
2023-05-03T20:30:08.709Z,17.62
2023-05-03T20:32:39.040Z,17.65
2023-05-03T20:35:10.480Z,17.54
2023-05-03T20:37:39.909Z,17.48
2023-05-03T20:40:11.256Z,17.35
2023-05-03T20:42:37.729Z,17.27
2023-05-03T20:45:05.628Z,17.20
2023-05-03T20:47:32.654Z,17.25
2023-05-03T20:49:59.249Z,17.17
2023-05-03T20:52:25.917Z,16.96
2023-05-03T20:54:52.428Z,16.92
2023-05-03T20:57:18.935Z,16.97
2023-05-03T20:59:45.547Z,16.90
2023-05-03T21:02:12.407Z,16.81
2023-05-03T21:04:38.996Z,16.53
2023-05-03T21:07:07.831Z,16.52
2023-05-03T21:09:34.298Z,16.48
2023-05-03T21:12:01.667Z,16.10
2023-05-03T21:14:28.772Z,15.98
2023-05-03T21:16:55.738Z,15.77
2023-05-03T21:19:22.448Z,15.66
2023-05-03T21:21:49.096Z,15.56
2023-05-03T21:24:15.807Z,15.52
2023-05-03T21:26:42.594Z,15.35
2023-05-03T21:29:09.620Z,15.41
2023-05-03T21:31:38.380Z,15.39
2023-05-03T21:34:04.962Z,15.23
2023-05-03T21:36:35.151Z,15.13
2023-05-03T21:39:01.656Z,15.17
2023-05-03T21:41:28.206Z,15.17
2023-05-03T21:43:54.751Z,15.25
2023-05-03T21:46:21.531Z,15.05
2023-05-03T21:48:48.344Z,15.07
2023-05-03T21:51:19.550Z,14.98
2023-05-03T21:53:46.039Z,14.92
2023-05-03T21:56:29.246Z,15.02
2023-05-03T21:59:02.127Z,15.00
2023-05-03T22:01:30.989Z,14.67
2023-05-03T22:03:57.587Z,14.74
2023-05-03T22:06:24.064Z,14.69
2023-05-03T22:08:50.527Z,14.74
2023-05-03T22:11:17.739Z,14.74
2023-05-03T22:14:02.971Z,14.54
2023-05-03T22:16:31.472Z,14.44
2023-05-03T22:18:58.389Z,14.52
2023-05-03T22:21:24.913Z,14.42
2023-05-03T22:23:51.458Z,14.24
2023-05-03T22:26:17.953Z,14.18
2023-05-03T22:28:44.406Z,13.94
2023-05-03T22:31:13.513Z,13.85
2023-05-03T22:33:45.527Z,13.87
2023-05-03T22:36:14.599Z,13.88
2023-05-03T22:38:44.247Z,13.96
2023-05-03T22:41:12.531Z,13.77
2023-05-03T22:43:38.989Z,13.74
2023-05-03T22:46:05.788Z,13.76
2023-05-03T22:48:35.165Z,13.60
2023-05-03T22:51:01.608Z,13.85
2023-05-03T22:53:28.159Z,13.94
2023-05-03T22:56:04.251Z,14.04
2023-05-03T22:58:30.866Z,14.06
2023-05-03T23:00:57.498Z,14.21
2023-05-03T23:03:24.630Z,14.34
2023-05-03T23:05:52.937Z,14.38
2023-05-03T23:08:19.873Z,14.06
2023-05-03T23:10:46.392Z,14.20
2023-05-03T23:13:15.750Z,14.12
2023-05-03T23:15:46.368Z,14.13
2023-05-03T23:18:17.525Z,14.05
2023-05-03T23:20:50.143Z,13.99
2023-05-03T23:23:16.660Z,13.86
2023-05-03T23:25:43.947Z,13.95
2023-05-03T23:28:10.495Z,13.91
2023-05-03T23:30:44.685Z,14.00
2023-05-03T23:33:11.894Z,14.05
2023-05-03T23:35:40.965Z,14.15
2023-05-03T23:38:07.550Z,14.15
2023-05-03T23:40:34.050Z,14.29
2023-05-03T23:43:00.551Z,14.38
2023-05-03T23:45:27.256Z,14.55
2023-05-03T23:47:53.968Z,14.46
2023-05-03T23:50:20.737Z,14.64
2023-05-03T23:52:47.314Z,14.45
2023-05-03T23:55:15.822Z,14.53
2023-05-03T23:57:42.325Z,14.42
